createdAt,value
2023-04-04T00:00:21.023Z,10.80
2023-04-04T00:02:49.272Z,10.40
2023-04-04T00:05:16.021Z,7.68
2023-04-04T00:07:42.661Z,9.80
2023-04-04T00:10:09.534Z,11.60
2023-04-04T00:12:36.564Z,11.32
2023-04-04T00:15:03.278Z,11.95
2023-04-04T00:17:30.389Z,7.70
2023-04-04T00:19:58.031Z,7.72
2023-04-04T00:22:24.676Z,8.85
2023-04-04T00:24:51.540Z,9.13
2023-04-04T00:27:18.082Z,9.57
2023-04-04T00:29:44.739Z,10.88
2023-04-04T00:32:11.875Z,10.35
2023-04-04T00:34:38.649Z,6.60
2023-04-04T00:37:07.364Z,6.28
2023-04-04T00:39:34.462Z,12.80
2023-04-04T00:42:01.611Z,8.50
2023-04-04T00:44:30.657Z,5.47
2023-04-04T00:46:57.449Z,10.80
2023-04-04T00:49:25.190Z,7.10
2023-04-04T00:51:51.824Z,12.27
2023-04-04T00:54:18.596Z,5.97
2023-04-04T00:56:45.401Z,7.07
2023-04-04T00:59:12.316Z,6.90
2023-04-04T01:01:39.294Z,11.77
2023-04-04T01:04:06.093Z,9.13
2023-04-04T01:06:33.077Z,8.00
2023-04-04T01:08:59.917Z,7.10
2023-04-04T01:11:27.664Z,7.97
2023-04-04T01:13:54.621Z,8.77
2023-04-04T01:16:24.139Z,9.40
2023-04-04T01:18:52.341Z,9.37
2023-04-04T01:21:21.906Z,9.50
2023-04-04T01:24:04.636Z,17.47
2023-04-04T01:26:39.475Z,8.10
2023-04-04T01:29:06.277Z,10.93
2023-04-04T01:31:42.479Z,8.83
2023-04-04T01:34:38.074Z,7.33
2023-04-04T01:37:32.987Z,8.00
2023-04-04T01:40:24.423Z,8.80
2023-04-04T01:42:53.261Z,9.73
2023-04-04T01:45:22.948Z,12.33
2023-04-04T01:47:50.380Z,5.77
2023-04-04T01:50:20.579Z,8.50
2023-04-04T01:52:47.725Z,4.67
2023-04-04T01:55:14.497Z,8.30
2023-04-04T01:57:41.869Z,8.60
2023-04-04T02:00:09.333Z,6.40
2023-04-04T02:02:47.859Z,10.70
2023-04-04T02:05:14.640Z,7.47
2023-04-04T02:07:41.307Z,9.87
2023-04-04T02:10:19.189Z,7.83
2023-04-04T02:12:46.752Z,12.13
2023-04-04T02:15:13.569Z,5.53
2023-04-04T02:17:40.401Z,7.20
2023-04-04T02:20:08.434Z,7.80
2023-04-04T02:22:35.118Z,10.20
2023-04-04T02:25:02.907Z,3.83
2023-04-04T02:27:29.566Z,11.10
2023-04-04T02:29:56.225Z,5.83
2023-04-04T02:32:23.217Z,6.27
2023-04-04T02:34:51.751Z,8.67
2023-04-04T02:37:19.245Z,7.23
2023-04-04T02:39:47.745Z,5.73
2023-04-04T02:42:16.194Z,7.97
2023-04-04T02:44:43.027Z,6.10
2023-04-04T02:47:13.456Z,6.73
2023-04-04T02:49:40.129Z,8.87
2023-04-04T02:52:08.281Z,6.90
2023-04-04T02:54:39.108Z,7.67
2023-04-04T02:57:08.101Z,8.83
2023-04-04T02:59:37.798Z,9.80
2023-04-04T03:02:04.646Z,7.70
2023-04-04T03:04:32.228Z,7.13
2023-04-04T03:06:59.606Z,7.07
2023-04-04T03:09:26.244Z,6.33
2023-04-04T03:11:52.914Z,5.73
2023-04-04T03:14:19.466Z,8.07
2023-04-04T03:16:46.367Z,8.10
2023-04-04T03:19:13.082Z,9.40
2023-04-04T03:21:39.737Z,5.87
2023-04-04T03:24:06.537Z,7.57
2023-04-04T03:26:33.352Z,7.40
2023-04-04T03:29:00.129Z,9.50
2023-04-04T03:31:28.135Z,6.47
2023-04-04T03:33:54.774Z,9.30
2023-04-04T03:36:22.741Z,9.27
2023-04-04T03:38:50.363Z,7.13
2023-04-04T03:41:16.994Z,11.87
2023-04-04T03:43:43.596Z,6.27
2023-04-04T03:46:10.356Z,6.20
2023-04-04T03:48:37.344Z,9.33
2023-04-04T03:51:07.788Z,11.10
2023-04-04T03:53:36.625Z,9.70
2023-04-04T03:56:03.527Z,13.20
2023-04-04T03:58:36.200Z,7.73
2023-04-04T04:01:02.873Z,7.83
2023-04-04T04:03:31.378Z,6.17
2023-04-04T04:05:59.574Z,9.13
2023-04-04T04:08:27.738Z,11.67
2023-04-04T04:10:54.678Z,11.40
2023-04-04T04:13:21.689Z,8.17
2023-04-04T04:15:49.451Z,9.50
2023-04-04T04:18:20.968Z,7.53
2023-04-04T04:20:49.128Z,6.67
2023-04-04T04:23:15.998Z,6.43
2023-04-04T04:25:43.051Z,6.90
2023-04-04T04:28:14.765Z,7.07
2023-04-04T04:30:42.206Z,8.97
2023-04-04T04:33:09.683Z,11.23
2023-04-04T04:35:46.756Z,6.93
2023-04-04T04:38:13.800Z,8.43
2023-04-04T04:40:41.106Z,13.07
2023-04-04T04:43:16.805Z,12.07
2023-04-04T04:45:43.421Z,16.17
2023-04-04T04:48:13.030Z,15.30
2023-04-04T04:50:47.718Z,9.50
2023-04-04T04:53:19.380Z,10.03
2023-04-04T04:55:47.661Z,11.63
2023-04-04T04:58:16.866Z,12.73
2023-04-04T05:00:47.774Z,8.60
2023-04-04T05:03:14.458Z,10.53
2023-04-04T05:05:47.632Z,11.93
2023-04-04T05:08:15.771Z,9.17
2023-04-04T05:10:55.227Z,9.20
2023-04-04T05:13:25.422Z,8.20
2023-04-04T05:15:52.174Z,10.40
2023-04-04T05:18:20.923Z,9.87
2023-04-04T05:20:54.510Z,14.33
2023-04-04T05:23:23.474Z,12.70
2023-04-04T05:25:53.430Z,9.53
2023-04-04T05:28:22.757Z,10.80
2023-04-04T05:30:50.859Z,9.83
2023-04-04T05:33:23.345Z,8.00
2023-04-04T05:36:03.330Z,11.40
2023-04-04T05:38:32.460Z,8.03
2023-04-04T05:40:59.045Z,17.40
2023-04-04T05:43:29.262Z,14.43
2023-04-04T05:46:03.493Z,14.43
2023-04-04T05:48:36.572Z,14.07
2023-04-04T05:51:03.366Z,12.77
2023-04-04T05:53:47.569Z,12.17
2023-04-04T05:56:18.649Z,14.47
2023-04-04T05:58:46.493Z,11.67
2023-04-04T06:01:15.893Z,10.27
2023-04-04T06:03:43.507Z,11.50
2023-04-04T06:06:14.061Z,10.20
2023-04-04T06:08:53.049Z,10.20
2023-04-04T06:11:23.969Z,10.13
2023-04-04T06:13:55.081Z,12.73
2023-04-04T06:16:22.670Z,12.37
2023-04-04T06:18:49.432Z,13.60
2023-04-04T06:21:16.589Z,10.63
2023-04-04T06:23:43.361Z,10.90
2023-04-04T06:26:10.252Z,12.90
2023-04-04T06:28:48.226Z,16.07
2023-04-04T06:31:17.061Z,12.37
2023-04-04T06:33:44.702Z,29.00
2023-04-04T06:36:12.723Z,16.00
2023-04-04T06:38:40.214Z,24.53
2023-04-04T06:41:15.133Z,21.00
2023-04-04T06:43:42.092Z,19.63
2023-04-04T06:46:09.385Z,16.40
2023-04-04T06:48:36.669Z,16.27
2023-04-04T06:51:06.939Z,17.23
2023-04-04T06:53:34.754Z,15.70
2023-04-04T06:56:01.553Z,14.45
2023-04-04T06:58:28.553Z,16.10
2023-04-04T07:00:56.500Z,19.00
2023-04-04T07:03:24.430Z,10.17
2023-04-04T07:05:51.257Z,18.20
2023-04-04T07:08:17.878Z,11.52
2023-04-04T07:10:44.784Z,10.05
2023-04-04T07:13:11.603Z,11.68
2023-04-04T07:15:38.238Z,9.55
2023-04-04T07:18:04.953Z,13.00
2023-04-04T07:20:32.229Z,12.60
2023-04-04T07:22:58.940Z,10.32
2023-04-04T07:25:25.614Z,11.38
2023-04-04T07:28:02.239Z,8.45
2023-04-04T07:30:33.213Z,15.35
2023-04-04T07:33:00.390Z,14.27
2023-04-04T07:35:27.128Z,8.00
2023-04-04T07:37:53.860Z,9.35
2023-04-04T07:40:21.594Z,20.60
2023-04-04T07:42:51.808Z,10.82
2023-04-04T07:45:18.569Z,7.53
2023-04-04T07:47:45.270Z,9.55
2023-04-04T07:50:13.446Z,8.55
2023-04-04T07:52:41.018Z,10.95
2023-04-04T07:55:08.894Z,8.98
2023-04-04T07:57:39.376Z,7.55
2023-04-04T08:00:12.485Z,9.35
2023-04-04T08:02:43.513Z,10.73
2023-04-04T08:05:10.477Z,12.40
2023-04-04T08:07:37.095Z,10.63
2023-04-04T08:10:03.889Z,10.35
2023-04-04T08:12:30.574Z,12.68
2023-04-04T08:14:57.233Z,6.82
2023-04-04T08:17:24.810Z,6.55
2023-04-04T08:19:51.619Z,6.85
2023-04-04T08:22:18.589Z,7.18
2023-04-04T08:24:46.214Z,9.98
2023-04-04T08:27:16.768Z,6.32
2023-04-04T08:29:45.562Z,6.88
2023-04-04T08:32:12.599Z,8.05
2023-04-04T08:34:39.988Z,15.57
2023-04-04T08:37:07.735Z,3.80
2023-04-04T08:39:34.465Z,8.23
2023-04-04T08:42:05.760Z,8.32
2023-04-04T08:44:34.063Z,6.95
2023-04-04T08:47:02.778Z,13.70
2023-04-04T08:49:30.267Z,5.25
2023-04-04T08:51:57.782Z,5.55
2023-04-04T08:54:26.121Z,4.97
2023-04-04T08:56:53.221Z,5.25
2023-04-04T08:59:21.029Z,6.75
2023-04-04T09:01:47.862Z,5.80
2023-04-04T09:04:14.559Z,4.72
2023-04-04T09:06:41.377Z,4.88
2023-04-04T09:09:10.650Z,6.93
2023-04-04T09:11:38.546Z,6.28
2023-04-04T09:14:05.238Z,7.65
2023-04-04T09:16:32.039Z,5.13
2023-04-04T09:18:58.762Z,5.00
2023-04-04T09:21:26.348Z,6.82
2023-04-04T09:24:00.822Z,6.80
2023-04-04T09:26:27.702Z,6.32
2023-04-04T09:28:54.585Z,6.00
2023-04-04T09:31:21.303Z,3.67
2023-04-04T09:33:51.299Z,3.40
2023-04-04T09:36:18.693Z,5.75
2023-04-04T09:38:46.282Z,4.00
2023-04-04T09:41:16.587Z,5.50
2023-04-04T09:43:46.788Z,10.07
2023-04-04T09:46:13.554Z,7.43
2023-04-04T09:48:41.045Z,3.80
2023-04-04T09:51:12.287Z,4.25
2023-04-04T09:53:41.599Z,4.85
2023-04-04T09:56:08.793Z,7.47
2023-04-04T09:58:36.486Z,9.82
2023-04-04T10:01:06.205Z,6.40
2023-04-04T10:03:32.858Z,3.15
2023-04-04T10:06:00.258Z,4.95
2023-04-04T10:08:28.962Z,2.95
2023-04-04T10:11:11.485Z,4.15
2023-04-04T10:13:44.656Z,4.28
2023-04-04T10:16:12.134Z,2.38
2023-04-04T10:18:39.412Z,4.90
2023-04-04T10:23:38.940Z,6.40
2023-04-04T10:26:06.138Z,4.07
2023-04-04T10:28:34.568Z,5.97
2023-04-04T10:31:23.505Z,4.43
2023-04-04T10:34:28.235Z,5.70
2023-04-04T10:37:03.494Z,3.72
2023-04-04T10:39:33.370Z,7.15
2023-04-04T10:42:00.030Z,13.40
2023-04-04T10:44:33.940Z,5.63
2023-04-04T10:47:22.010Z,7.03
2023-04-04T10:49:52.462Z,6.05
2023-04-04T10:52:21.334Z,4.80
2023-04-04T10:54:51.234Z,3.70
2023-04-04T10:57:18.050Z,5.35
2023-04-04T11:00:08.319Z,9.38
2023-04-04T11:02:47.062Z,4.45
2023-04-04T11:05:51.111Z,5.97
2023-04-04T11:08:20.023Z,11.20
2023-04-04T11:10:49.112Z,5.68
2023-04-04T11:13:16.486Z,5.13
2023-04-04T11:16:07.342Z,4.70
2023-04-04T11:18:43.656Z,5.07
2023-04-04T11:21:15.176Z,8.38
2023-04-04T11:23:48.083Z,8.20
2023-04-04T11:26:27.723Z,7.13
2023-04-04T11:29:02.005Z,7.32
2023-04-04T11:31:40.202Z,2.75
2023-04-04T11:34:08.042Z,5.40
2023-04-04T11:36:41.572Z,6.78
2023-04-04T11:39:16.941Z,6.68
2023-04-04T11:41:58.782Z,3.53
2023-04-04T11:44:30.664Z,3.53
2023-04-04T11:47:06.985Z,5.28
2023-04-04T11:49:36.251Z,5.85
2023-04-04T11:52:07.348Z,5.80
2023-04-04T11:54:34.041Z,7.53
2023-04-04T11:57:01.631Z,6.22
2023-04-04T11:59:28.355Z,3.90
2023-04-04T12:01:55.347Z,5.18
2023-04-04T12:04:22.702Z,5.80
2023-04-04T12:06:52.805Z,5.65
2023-04-04T12:09:20.559Z,3.33
2023-04-04T12:11:48.056Z,7.70
2023-04-04T12:14:22.640Z,5.80
2023-04-04T12:16:54.436Z,6.40
2023-04-04T12:19:23.789Z,9.20
2023-04-04T12:21:52.166Z,2.30
2023-04-04T12:24:19.026Z,3.30
2023-04-04T12:26:47.596Z,3.28
2023-04-04T12:29:15.953Z,4.90
2023-04-04T12:31:44.771Z,2.85
2023-04-04T12:36:56.966Z,9.05
2023-04-04T12:39:27.550Z,5.65
2023-04-04T12:41:58.425Z,8.68
2023-04-04T12:44:32.167Z,2.63
2023-04-04T12:47:00.920Z,4.10
2023-04-04T12:49:48.760Z,4.95
2023-04-04T12:52:22.031Z,7.25
2023-04-04T12:55:04.788Z,5.47
2023-04-04T12:57:34.162Z,2.72
2023-04-04T13:00:02.461Z,3.95
2023-04-04T13:02:29.687Z,4.50
2023-04-04T13:04:59.118Z,5.22
2023-04-04T13:07:32.793Z,5.32
2023-04-04T13:10:02.650Z,3.63
2023-04-04T13:12:56.876Z,4.95
2023-04-04T13:15:23.873Z,5.45
2023-04-04T13:17:51.503Z,5.22
2023-04-04T13:20:19.884Z,3.85
2023-04-04T13:22:46.582Z,4.30
2023-04-04T13:25:13.270Z,4.10
2023-04-04T13:27:40.669Z,3.15
2023-04-04T13:30:10.096Z,4.60
2023-04-04T13:32:38.315Z,5.40
2023-04-04T13:35:05.393Z,8.57
2023-04-04T13:37:32.077Z,3.47
2023-04-04T13:39:58.709Z,7.22
2023-04-04T13:42:30.097Z,8.27
2023-04-04T13:44:57.312Z,7.03
2023-04-04T13:47:27.732Z,5.00
2023-04-04T13:49:57.265Z,4.10
2023-04-04T13:52:24.052Z,4.90
2023-04-04T13:54:51.620Z,4.35
2023-04-04T13:57:18.340Z,4.88
2023-04-04T13:59:44.918Z,6.07
2023-04-04T14:02:11.618Z,6.10
2023-04-04T14:04:38.352Z,5.63
2023-04-04T14:07:05.160Z,5.68
2023-04-04T14:09:31.877Z,6.22
2023-04-04T14:11:58.609Z,5.82
2023-04-04T14:14:25.316Z,7.68
2023-04-04T14:16:52.318Z,7.53
2023-04-04T14:19:18.942Z,7.35
2023-04-04T14:21:46.019Z,6.13
2023-04-04T14:24:12.711Z,4.93
2023-04-04T14:26:39.305Z,6.70
2023-04-04T14:29:06.194Z,5.45
2023-04-04T14:31:34.817Z,6.38
2023-04-04T14:34:02.723Z,8.65
2023-04-04T14:36:29.565Z,4.50
2023-04-04T14:38:56.732Z,5.60
2023-04-04T14:41:23.420Z,8.27
2023-04-04T14:43:50.426Z,4.05
2023-04-04T14:46:20.093Z,9.20
2023-04-04T14:48:47.619Z,5.00
2023-04-04T14:51:14.563Z,7.53
2023-04-04T14:53:41.528Z,10.10
2023-04-04T14:56:08.477Z,4.32
2023-04-04T14:58:35.710Z,4.18
2023-04-04T15:01:03.581Z,5.10
2023-04-04T15:03:30.707Z,6.60
2023-04-04T15:05:57.677Z,4.15
2023-04-04T15:08:24.452Z,6.80
2023-04-04T15:10:51.366Z,5.65
2023-04-04T15:13:20.896Z,9.18
2023-04-04T15:15:47.620Z,9.63
2023-04-04T15:18:16.026Z,6.25
2023-04-04T15:20:43.269Z,8.35
2023-04-04T15:23:10.056Z,6.57
2023-04-04T15:25:37.260Z,6.20
2023-04-04T15:28:03.889Z,4.97
2023-04-04T15:30:31.040Z,5.05
2023-04-04T15:32:57.769Z,6.82
2023-04-04T15:35:24.469Z,4.93
2023-04-04T15:37:51.281Z,6.32
2023-04-04T15:40:19.077Z,8.00
2023-04-04T15:42:46.364Z,7.40
2023-04-04T15:45:14.144Z,10.00
2023-04-04T15:47:41.899Z,6.28
2023-04-04T15:50:08.776Z,5.93
2023-04-04T15:52:35.449Z,5.82
2023-04-04T15:55:02.955Z,5.25
2023-04-04T15:57:29.593Z,5.38
2023-04-04T15:59:58.053Z,5.40
2023-04-04T16:02:28.088Z,6.32
2023-04-04T16:04:54.919Z,4.95
2023-04-04T16:07:21.599Z,7.70
2023-04-04T16:09:48.412Z,6.07
2023-04-04T16:12:15.336Z,9.60
2023-04-04T16:14:42.031Z,6.47
2023-04-04T16:17:08.883Z,5.65
2023-04-04T16:19:38.214Z,4.07
2023-04-04T16:22:05.628Z,12.10
2023-04-04T16:24:32.444Z,4.78
2023-04-04T16:26:59.221Z,6.25
2023-04-04T16:29:25.926Z,5.57
2023-04-04T16:31:53.212Z,3.65
2023-04-04T16:34:19.986Z,4.80
2023-04-04T16:36:46.783Z,9.85
2023-04-04T16:39:13.614Z,10.48
2023-04-04T16:41:41.010Z,6.70
2023-04-04T16:44:07.770Z,5.53
2023-04-04T16:46:34.524Z,8.30
2023-04-04T16:49:01.292Z,4.72
2023-04-04T16:51:28.445Z,7.15
2023-04-04T16:53:55.146Z,6.60
2023-04-04T16:56:21.752Z,8.40
2023-04-04T16:58:48.529Z,7.32
2023-04-04T17:01:16.690Z,9.15
2023-04-04T17:03:43.490Z,6.78
2023-04-04T17:06:10.852Z,6.65
2023-04-04T17:08:37.742Z,6.65
2023-04-04T17:11:04.581Z,7.55
2023-04-04T17:13:31.492Z,4.60
2023-04-04T17:15:58.368Z,4.43
2023-04-04T17:18:25.162Z,9.02
2023-04-04T17:20:52.692Z,8.02
2023-04-04T17:23:19.334Z,6.30
2023-04-04T17:25:46.211Z,4.30
2023-04-04T17:28:13.438Z,8.18
2023-04-04T17:30:40.397Z,5.55
2023-04-04T17:33:08.082Z,6.50
2023-04-04T17:35:34.882Z,6.85
2023-04-04T17:38:01.651Z,7.15
2023-04-04T17:40:28.491Z,6.45
2023-04-04T17:42:55.412Z,7.18
2023-04-04T17:45:22.766Z,4.93
2023-04-04T17:47:49.816Z,9.35
2023-04-04T17:50:16.738Z,6.13
2023-04-04T17:52:44.806Z,6.72
2023-04-04T17:55:13.292Z,8.82
2023-04-04T17:57:41.091Z,11.70
2023-04-04T18:00:09.462Z,7.95
2023-04-04T18:02:36.241Z,6.57
2023-04-04T18:05:03.075Z,9.57
2023-04-04T18:07:30.446Z,7.18
2023-04-04T18:09:57.215Z,7.43
2023-04-04T18:12:27.084Z,7.65
2023-04-04T18:14:53.938Z,6.15
2023-04-04T18:17:20.613Z,5.35
2023-04-04T18:19:47.585Z,6.22
2023-04-04T18:22:14.581Z,11.27
2023-04-04T18:24:41.254Z,10.55
2023-04-04T18:27:09.907Z,8.82
2023-04-04T18:29:36.588Z,8.05
2023-04-04T18:32:07.308Z,6.13
2023-04-04T18:34:34.321Z,8.57
2023-04-04T18:37:02.237Z,9.00
2023-04-04T18:39:29.198Z,7.57
2023-04-04T18:41:56.639Z,9.23
2023-04-04T18:44:23.450Z,9.27
2023-04-04T18:46:51.150Z,6.97
2023-04-04T18:49:18.842Z,8.30
2023-04-04T18:51:52.203Z,7.38
2023-04-04T18:54:19.385Z,8.85
2023-04-04T18:56:46.126Z,8.27
2023-04-04T18:59:12.978Z,9.05
2023-04-04T19:01:39.706Z,8.50
2023-04-04T19:04:10.276Z,9.95
2023-04-04T19:06:38.362Z,7.25
2023-04-04T19:09:07.228Z,10.40
2023-04-04T19:11:34.010Z,9.88
2023-04-04T19:14:01.123Z,7.97
2023-04-04T19:16:27.903Z,10.40
2023-04-04T19:18:54.581Z,12.52
2023-04-04T19:21:21.491Z,15.05
2023-04-04T19:23:48.270Z,16.50
2023-04-04T19:26:17.987Z,14.05
2023-04-04T19:28:46.274Z,14.70
2023-04-04T19:31:24.749Z,7.55
2023-04-04T19:33:55.049Z,10.85
2023-04-04T19:36:22.374Z,9.68
2023-04-04T19:38:49.335Z,13.30
2023-04-04T19:41:16.656Z,14.57
2023-04-04T19:43:45.732Z,11.05
2023-04-04T19:46:15.841Z,10.30
2023-04-04T19:48:50.596Z,11.48
2023-04-04T19:51:17.227Z,14.88
2023-04-04T19:53:51.285Z,12.75
2023-04-04T19:56:18.896Z,9.73
2023-04-04T19:58:48.341Z,14.98
2023-04-04T20:01:25.398Z,16.77
2023-04-04T20:03:52.341Z,16.35
2023-04-04T20:06:30.011Z,16.23
2023-04-04T20:08:58.706Z,16.33
2023-04-04T20:11:30.957Z,13.02
2023-04-04T20:13:58.831Z,16.00
2023-04-04T20:16:27.496Z,14.55
2023-04-04T20:18:54.520Z,16.90
2023-04-04T20:21:23.368Z,16.85
2023-04-04T20:23:58.188Z,14.48
2023-04-04T20:26:54.758Z,13.65
2023-04-04T20:29:29.721Z,16.25
2023-04-04T20:32:08.456Z,16.70
2023-04-04T20:34:41.691Z,12.95
2023-04-04T20:37:30.278Z,12.23
2023-04-04T20:39:59.162Z,12.43
2023-04-04T20:42:26.031Z,13.38
2023-04-04T20:44:53.333Z,13.88
2023-04-04T20:47:42.770Z,11.55
2023-04-04T20:50:19.028Z,10.18
2023-04-04T20:52:47.069Z,10.18
2023-04-04T20:55:13.995Z,10.15
2023-04-04T20:57:40.723Z,14.45
2023-04-04T21:00:36.809Z,8.27
2023-04-04T21:03:20.374Z,16.65
2023-04-04T21:05:48.414Z,11.95
2023-04-04T21:08:24.303Z,10.88
2023-04-04T21:10:56.153Z,12.35
2023-04-04T21:13:32.979Z,10.70
2023-04-04T21:16:01.352Z,9.55
2023-04-04T21:18:30.740Z,14.02
2023-04-04T21:20:57.357Z,10.10
2023-04-04T21:23:27.015Z,12.90
2023-04-04T21:25:58.362Z,11.07
2023-04-04T21:28:33.454Z,8.63
2023-04-04T21:31:01.234Z,10.50
2023-04-04T21:33:28.598Z,10.32
2023-04-04T21:35:56.297Z,14.02
2023-04-04T21:38:34.754Z,18.40
2023-04-04T21:41:07.761Z,7.68
2023-04-04T21:43:35.262Z,10.73
2023-04-04T21:46:01.944Z,10.57
2023-04-04T21:48:28.649Z,13.98
2023-04-04T21:50:55.417Z,10.98
2023-04-04T21:53:22.390Z,9.43
2023-04-04T21:55:49.042Z,11.55
2023-04-04T21:58:15.694Z,12.98
2023-04-04T22:00:42.833Z,11.43
2023-04-04T22:03:09.604Z,8.88
2023-04-04T22:05:39.377Z,10.15
2023-04-04T22:08:06.616Z,12.80
2023-04-04T22:10:33.597Z,15.20
2023-04-04T22:13:01.937Z,11.57
2023-04-04T22:15:29.486Z,10.70
2023-04-04T22:18:03.568Z,9.07
2023-04-04T22:20:32.152Z,14.18
2023-04-04T22:23:05.800Z,13.02
2023-04-04T22:25:33.973Z,15.05
2023-04-04T22:28:03.626Z,14.15
2023-04-04T22:30:31.875Z,15.32
2023-04-04T22:33:03.290Z,13.95
2023-04-04T22:35:30.160Z,11.18
2023-04-04T22:38:00.967Z,12.40
2023-04-04T22:40:28.659Z,10.27
2023-04-04T22:42:55.708Z,12.18
2023-04-04T22:45:23.032Z,10.68
2023-04-04T22:47:49.920Z,9.63
2023-04-04T22:50:17.731Z,15.57
2023-04-04T22:52:44.978Z,10.90
2023-04-04T22:55:18.552Z,13.63
2023-04-04T22:57:45.287Z,9.68
2023-04-04T23:00:14.264Z,11.88
2023-04-04T23:02:42.627Z,10.57
2023-04-04T23:05:10.361Z,6.40
2023-04-04T23:07:37.976Z,16.08
2023-04-04T23:10:06.221Z,8.45
2023-04-04T23:12:32.928Z,8.25
2023-04-04T23:15:01.514Z,9.35
2023-04-04T23:17:28.340Z,10.77
2023-04-04T23:19:55.074Z,9.60
2023-04-04T23:22:21.880Z,10.98
2023-04-04T23:24:48.539Z,9.30
2023-04-04T23:27:15.757Z,10.27
2023-04-04T23:29:43.279Z,9.48
2023-04-04T23:32:10.648Z,10.10
2023-04-04T23:34:37.494Z,9.15
2023-04-04T23:37:04.285Z,8.57
2023-04-04T23:39:31.259Z,11.57
2023-04-04T23:41:58.369Z,12.48
2023-04-04T23:44:25.020Z,11.60
2023-04-04T23:46:52.365Z,11.80
2023-04-04T23:49:20.683Z,11.43
2023-04-04T23:51:47.440Z,11.23
2023-04-04T23:54:14.560Z,11.27
2023-04-04T23:56:41.500Z,10.27
2023-04-04T23:59:08.314Z,7.43
